Edinburg, TX

7:51 AM CST on November 23, 2017 (GMT -0600)
Edinburg

Weather History for KEBG - March, 2014

Change the Weather History Date:

Wednesday, March 12, 2014

  Actual Average (KMFE) Record (KMFE)
Temperature  
Mean Temperature 64 °F -  
Max Temperature 73 °F 77 °F 99 °F (1975)
Min Temperature 54 °F 58 °F 41 °F (1969)
Degree Days  
Heating Degree Days 2    
Growing Degree Days 14 (Base 50)    
Moisture  
Dew Point 48 °F    
Average Humidity 60    
Maximum Humidity 91    
Minimum Humidity 27    
Precipitation  
Precipitation 0.00 in - - ()
Sea Level Pressure  
Sea Level Pressure 30.02 in    
Wind  
Wind Speed 10 mph (North)    
Max Wind Speed 30 mph    
Max Gust Speed 37 mph    
Visibility 10 miles    
Events      
Averages and records for this station are not official NWS values.
T = Trace of Precipitation, MM = Missing Value Source: NWS Daily Summary

Daily Weather History Graph

Daily Weather History Graph

Search for Another Location

Airport or City:

Trip Planner

Search our weather history database for the weather conditions in past years. The results will help you decide how hot, cold, wet, or windy it might be!

Date:

Astronomy

Mar. 12, 2014 Rise Set
Actual Time 7:44 AM CDT 7:39 PM CDT
Civil Twilight 7:21 AM CDT 8:02 PM CDT
Nautical Twilight 6:55 AM CDT 8:29 PM CDT
Astronomical Twilight 6:28 AM CDT 8:56 PM CDT
Moon 4:27 PM CDT (3/12) 5:00 AM CDT (3/12)
Length of Visible Light 12h 41m
Length of Day
11h 54m
Waxing Gibbous, 85% of the Moon is Illuminated
Mar 12
Waxing Gibbous
Mar 16
Full
Mar 23
Last Quarter
Mar 30
New
Apr 7
First Quarter

Hourly Weather History & Observations

Time (CDT) Temp. Dew Point Humidity Pressure Visibility Wind Dir Wind Speed Gust Speed Precip Events Conditions
12:15 AM 65.5 °F 61.7 °F 88% 29.78 in 10.0 mi South 5.8 mph - N/A   Clear
12:35 AM 65.3 °F 61.5 °F 88% 29.78 in 10.0 mi South 6.9 mph - N/A   Clear
12:55 AM 64.8 °F 61.2 °F 88% 29.79 in 10.0 mi South 4.6 mph - N/A   Clear
1:15 AM 64.2 °F 60.8 °F 89% 29.78 in 10.0 mi South 3.5 mph - N/A   Clear
1:35 AM 63.5 °F 60.3 °F 89% 29.78 in 10.0 mi South 4.6 mph - N/A   Clear
1:55 AM 63.5 °F 60.3 °F 89% 29.78 in 7.0 mi South 4.6 mph - N/A   Clear
2:15 AM 62.8 °F 59.9 °F 90% 29.78 in 7.0 mi South 4.6 mph - N/A   Clear
2:35 AM 62.8 °F 59.9 °F 90% 29.77 in 7.0 mi South 4.6 mph - N/A   Clear
2:55 AM 62.8 °F 60.1 °F 91% 29.77 in 7.0 mi South 4.6 mph - N/A   Clear
3:15 AM 63.5 °F 60.8 °F 91% 29.77 in 7.0 mi SSW 5.8 mph - N/A   Clear
3:35 AM 63.7 °F 61.0 °F 91% 29.77 in 7.0 mi SSW 5.8 mph - N/A   Clear
3:55 AM 63.9 °F 61.0 °F 90% 29.77 in 7.0 mi SSW 6.9 mph - N/A   Clear
4:15 AM 63.9 °F 60.8 °F 90% 29.76 in 10.0 mi SSW 6.9 mph - N/A   Clear
4:35 AM 64.2 °F 60.8 °F 89% 29.76 in 10.0 mi SSW 5.8 mph - N/A   Clear
4:55 AM 63.5 °F 59.9 °F 88% 29.77 in 10.0 mi South 5.8 mph - N/A   Clear
5:15 AM 63.5 °F 59.9 °F 88% 29.77 in 10.0 mi South 5.8 mph - N/A   Clear
5:35 AM 63.5 °F 59.4 °F 86% 29.77 in 10.0 mi SSW 4.6 mph - N/A   Clear
5:55 AM 63.5 °F 59.0 °F 85% 29.78 in 10.0 mi SSW 3.5 mph - N/A   Clear
6:15 AM 62.8 °F 58.3 °F 85% 29.79 in 10.0 mi SSW 3.5 mph - N/A   Clear
6:35 AM 61.0 °F 57.2 °F 87% 29.80 in 10.0 mi Calm Calm - N/A   Clear
6:55 AM 60.3 °F 57.0 °F 89% 29.82 in 7.0 mi Calm Calm - N/A   Clear
7:15 AM 59.4 °F 56.5 °F 90% 29.82 in 5.0 mi Calm Calm - N/A   Clear
7:35 AM 57.7 °F 54.9 °F 90% 29.88 in 3.0 mi North 21.9 mph 25.3 mph N/A   Clear
7:55 AM 62.1 °F 59.2 °F 90% 29.92 in 10.0 mi North 10.4 mph 23.0 mph N/A   Clear
8:15 AM 62.6 °F 59.0 °F 88% 29.93 in 10.0 mi North 6.9 mph - N/A   Clear
8:35 AM 64.6 °F 59.9 °F 85% 29.96 in 10.0 mi North 12.7 mph - N/A   Clear
8:55 AM 64.9 °F 59.0 °F 81% 29.98 in 10.0 mi North 18.4 mph 28.8 mph N/A   Clear
9:15 AM 64.2 °F 55.8 °F 74% 30.01 in 10.0 mi North 24.2 mph 32.2 mph N/A   Clear
9:35 AM 63.5 °F 51.4 °F 65% 30.03 in 10.0 mi NNE 24.2 mph 34.5 mph N/A   Clear
9:55 AM 63.5 °F 47.1 °F 55% 30.05 in 10.0 mi NNE 27.6 mph 36.8 mph N/A   Mostly Cloudy
10:15 AM 63.7 °F 47.1 °F 55% 30.07 in 10.0 mi North 29.9 mph 36.8 mph N/A   Overcast
10:35 AM 64.9 °F 45.1 °F 49% 30.09 in 10.0 mi North 21.9 mph 33.4 mph N/A   Scattered Clouds
10:55 AM 65.5 °F 45.3 °F 48% 30.11 in 10.0 mi North 24.2 mph 29.9 mph N/A   Scattered Clouds
11:15 AM 65.3 °F 42.1 °F 43% 30.14 in 10.0 mi North 25.3 mph 31.1 mph N/A   Clear
11:35 AM 67.3 °F 42.6 °F 41% 30.15 in 10.0 mi North 18.4 mph - N/A   Clear
11:55 AM 66.9 °F 41.9 °F 40% 30.16 in 10.0 mi North 24.2 mph 32.2 mph N/A   Clear
12:15 PM 67.3 °F 41.0 °F 38% 30.16 in 10.0 mi North 20.7 mph 29.9 mph N/A   Clear
12:35 PM 68.2 °F 41.4 °F 38% 30.16 in 10.0 mi NNW 21.9 mph 27.6 mph N/A   Clear
1:15 PM 69.8 °F 41.0 °F 35% 30.15 in 10.0 mi North 20.7 mph 26.5 mph N/A   Clear
1:35 PM 70.3 °F 41.4 °F 35% 30.14 in 10.0 mi North 18.4 mph 26.5 mph N/A   Clear
1:55 PM 70.5 °F 39.7 °F 33% 30.14 in 10.0 mi North 20.7 mph 27.6 mph N/A   Clear
2:15 PM 71.1 °F 40.3 °F 33% 30.13 in 10.0 mi NNW 18.4 mph 29.9 mph N/A   Clear
2:35 PM 71.4 °F 39.6 °F 31% 30.13 in 10.0 mi North 17.3 mph 25.3 mph N/A   Clear
2:55 PM 72.0 °F 39.4 °F 31% 30.12 in 10.0 mi NNW 19.6 mph 28.8 mph N/A   Clear
3:15 PM 73.0 °F 40.5 °F 31% 30.12 in 10.0 mi North 18.4 mph 24.2 mph N/A   Clear
3:35 PM 73.2 °F 40.1 °F 30% 30.11 in 10.0 mi NNW 17.3 mph 26.5 mph N/A   Clear
3:55 PM 73.6 °F 39.9 °F 30% 30.11 in 10.0 mi North 19.6 mph 25.3 mph N/A   Clear
4:15 PM 73.4 °F 39.7 °F 30% 30.11 in 10.0 mi North 13.8 mph 23.0 mph N/A   Clear
4:35 PM 73.4 °F 38.8 °F 29% 30.10 in 10.0 mi NNW 17.3 mph - N/A   Clear
4:55 PM 73.6 °F 38.8 °F 28% 30.10 in 10.0 mi North 16.1 mph 20.7 mph N/A   Clear
5:15 PM 73.6 °F 38.1 °F 28% 30.10 in 10.0 mi North 18.4 mph 25.3 mph N/A   Clear
5:35 PM 73.6 °F 37.9 °F 27% 30.10 in 10.0 mi North 17.3 mph - N/A   Clear
5:55 PM 72.9 °F 37.4 °F 28% 30.10 in 10.0 mi North 19.6 mph 25.3 mph N/A   Clear
6:15 PM 72.1 °F 37.0 °F 28% 30.12 in 10.0 mi North 17.3 mph 23.0 mph N/A   Clear
6:35 PM 71.6 °F 36.7 °F 28% 30.12 in 10.0 mi North 16.1 mph - N/A   Clear
6:55 PM 70.7 °F 37.2 °F 29% 30.13 in 10.0 mi North 15.0 mph - N/A   Clear
7:15 PM 69.3 °F 37.8 °F 32% 30.14 in 10.0 mi North 10.4 mph 17.3 mph N/A   Clear
7:35 PM 67.8 °F 37.8 °F 33% 30.15 in 10.0 mi North 10.4 mph - N/A   Clear
7:55 PM 66.2 °F 38.7 °F 36% 30.16 in 10.0 mi North 9.2 mph - N/A   Clear
8:15 PM 63.9 °F 40.8 °F 43% 30.18 in 10.0 mi North 6.9 mph - N/A   Clear
8:35 PM 62.8 °F 41.4 °F 45% 30.19 in 10.0 mi NNE 8.1 mph - N/A   Clear
8:55 PM 61.0 °F 42.4 °F 51% 30.20 in 10.0 mi NNE 4.6 mph - N/A   Clear
9:15 PM 60.8 °F 42.3 °F 50% 30.21 in 10.0 mi NNE 4.6 mph - N/A   Clear
9:35 PM 60.3 °F 41.7 °F 50% 30.23 in 10.0 mi NNE 5.8 mph - N/A   Clear
9:55 PM 58.6 °F 42.3 °F 55% 30.23 in 10.0 mi NNE 5.8 mph - N/A   Clear
10:15 PM 58.1 °F 42.3 °F 56% 30.24 in 10.0 mi NNE 5.8 mph - N/A   Clear
10:35 PM 56.5 °F 43.3 °F 61% 30.25 in 10.0 mi North 5.8 mph - N/A   Clear
10:55 PM 55.4 °F 43.5 °F 64% 30.26 in 10.0 mi North 4.6 mph - N/A   Clear
11:15 PM 54.9 °F 43.3 °F 65% 30.26 in 10.0 mi North 4.6 mph - N/A   Clear
11:35 PM 54.7 °F 42.4 °F 63% 30.27 in 10.0 mi North 6.9 mph - N/A   Clear
11:55 PM 54.5 °F 41.5 °F 62% 30.26 in 10.0 mi North 6.9 mph - N/A   Clear